Time;durP1;ratioP1;P1;durP2;ratioP2;P2;SDS_P1;SDS_P2;PMS_P1;PMS_P2;Temp;Humidity;BMP_temperature;BMP_pressure;BME280_temperature;BME280_humidity;BME280_pressure;Samples;Min_cycle;Max_cycle;Signal;HPM_P1;HPM_P2
2023/03/27 00:01:17;;;;;;;1.33;0.67;;;4.80;99.90;;;;;;4993717;28;20292;-76
2023/03/27 00:03:47;;;;;;;1.23;0.87;;;4.80;99.90;;;;;;4993310;28;20220;-78
2023/03/27 00:06:18;;;;;;;1.00;0.67;;;4.70;99.90;;;;;;4993655;28;20198;-77
2023/03/27 00:08:49;;;;;;;1.47;1.00;;;4.60;99.90;;;;;;4995651;28;20210;-76
2023/03/27 00:11:18;;;;;;;1.07;0.80;;;4.60;99.90;;;;;;5012780;28;20197;-77
2023/03/27 00:13:48;;;;;;;1.37;0.70;;;4.60;99.90;;;;;;5012534;28;20216;-76
2023/03/27 00:16:18;;;;;;;1.57;0.80;;;4.60;99.90;;;;;;5012763;28;20271;-76
2023/03/27 00:18:47;;;;;;;1.80;0.93;;;4.60;99.90;;;;;;5011694;28;20626;-77
2023/03/27 00:21:15;;;;;;;2.30;0.70;;;4.50;99.90;;;;;;5012776;28;20245;-78
2023/03/27 00:23:46;;;;;;;1.03;0.70;;;4.50;99.90;;;;;;5012550;28;20271;-76
2023/03/27 00:26:15;;;;;;;1.67;0.90;;;4.40;99.90;;;;;;5012515;28;20206;-77
2023/03/27 00:28:43;;;;;;;0.77;0.70;;;4.40;99.90;;;;;;4999298;28;20305;-76
2023/03/27 00:31:14;;;;;;;1.97;0.70;;;4.40;99.90;;;;;;4992834;28;20232;-77
2023/03/27 00:33:42;;;;;;;1.13;0.67;;;4.40;99.90;;;;;;4992493;28;20206;-76
2023/03/27 00:36:12;;;;;;;2.30;0.90;;;4.40;99.90;;;;;;4993015;28;20322;-76
2023/03/27 00:38:40;;;;;;;0.90;0.70;;;4.30;99.90;;;;;;4992692;28;20206;-76
2023/03/27 00:41:09;;;;;;;1.53;0.80;;;4.30;99.90;;;;;;4992521;28;20218;-76
2023/03/27 00:43:42;;;;;;;0.87;0.70;;;4.40;99.90;;;;;;4992119;28;20624;-77
2023/03/27 00:46:42;;;;;;;3.13;0.80;;;4.40;99.90;;;;;;4992746;28;20289;-76
2023/03/27 00:49:13;;;;;;;3.00;0.97;;;4.50;99.90;;;;;;4992863;28;20281;-75
2023/03/27 00:51:43;;;;;;;1.00;0.90;;;4.50;99.90;;;;;;4992244;28;20200;-76
2023/03/27 00:54:15;;;;;;;1.27;0.90;;;4.50;99.90;;;;;;4992422;28;20213;-78
2023/03/27 00:56:44;;;;;;;1.07;0.80;;;4.50;99.90;;;;;;4992511;28;20229;-77
2023/03/27 00:59:16;;;;;;;1.67;0.90;;;4.50;99.90;;;;;;4992683;28;20268;-77
2023/03/27 01:01:45;;;;;;;1.00;0.90;;;4.60;99.90;;;;;;4992976;28;20704;-78
2023/03/27 01:04:19;;;;;;;2.27;1.00;;;4.50;99.90;;;;;;4993020;28;20567;-76
2023/03/27 01:06:51;;;;;;;0.83;0.83;;;4.50;99.90;;;;;;4992443;28;20672;-76
2023/03/27 01:09:20;;;;;;;1.17;1.00;;;4.60;99.90;;;;;;4992248;28;20210;-77
2023/03/27 01:12:03;;;;;;;1.13;0.60;;;4.60;99.90;;;;;;4994635;28;20561;-77
2023/03/27 01:14:38;;;;;;;1.47;0.77;;;4.60;99.90;;;;;;5011672;28;20217;-76
2023/03/27 01:17:21;;;;;;;0.90;0.90;;;4.60;99.90;;;;;;5012253;28;20224;-75
2023/03/27 01:20:41;;;;;;;1.53;1.00;;;4.70;99.90;;;;;;4999150;28;20587;-76
2023/03/27 01:23:33;;;;;;;1.33;0.77;;;4.70;99.90;;;;;;4992119;28;20198;-76
2023/03/27 01:26:57;;;;;;;1.43;0.70;;;4.70;99.90;;;;;;4991665;28;20688;-77
2023/03/27 01:30:00;;;;;;;0.97;0.80;;;4.70;99.90;;;;;;4992974;28;20210;-78
2023/03/27 01:35:43;;;;;;;1.37;0.73;;;4.70;99.90;;;;;;5146638;27;20577;-76
2023/03/27 01:38:42;;;;;;;0.80;0.80;;;4.70;99.90;;;;;;5122105;28;20293;-77
2023/03/27 01:41:15;;;;;;;1.53;1.07;;;4.70;99.90;;;;;;5076910;28;20296;-78
2023/03/27 01:43:52;;;;;;;2.40;1.10;;;4.70;99.90;;;;;;5109275;28;20198;-77
2023/03/27 01:46:26;;;;;;;1.67;1.10;;;4.70;99.90;;;;;;5109881;28;20225;-76
2023/03/27 01:48:59;;;;;;;1.40;1.00;;;4.70;99.90;;;;;;5109306;28;20214;-78
2023/03/27 01:51:33;;;;;;;2.13;0.83;;;4.70;99.90;;;;;;5110055;28;20247;-77
2023/03/27 01:54:05;;;;;;;1.50;0.77;;;4.60;99.90;;;;;;5109071;28;20344;-76
2023/03/27 01:56:39;;;;;;;1.87;0.80;;;4.70;99.90;;;;;;5109883;28;20221;-77
2023/03/27 01:59:11;;;;;;;1.90;0.80;;;4.60;99.90;;;;;;5109701;28;20226;-78
2023/03/27 02:01:44;;;;;;;2.00;1.00;;;4.60;99.90;;;;;;5109436;28;20195;-77
2023/03/27 02:04:16;;;;;;;1.50;0.80;;;4.60;99.90;;;;;;5123501;28;20194;-78
2023/03/27 02:06:50;;;;;;;1.27;0.90;;;4.50;99.90;;;;;;5117611;28;20206;-76
2023/03/27 02:09:22;;;;;;;1.37;1.00;;;4.50;99.90;;;;;;5109303;28;20208;-77
2023/03/27 02:11:56;;;;;;;2.27;1.10;;;4.50;99.90;;;;;;5122830;28;20201;-78
2023/03/27 02:14:29;;;;;;;2.00;1.00;;;4.50;99.90;;;;;;5118621;28;20257;-77
2023/03/27 02:17:02;;;;;;;1.70;1.00;;;4.50;99.90;;;;;;5108898;28;20210;-78
2023/03/27 02:19:34;;;;;;;2.27;1.20;;;4.50;99.90;;;;;;5111077;28;20564;-77
2023/03/27 02:22:03;;;;;;;2.10;1.10;;;4.40;99.90;;;;;;5108925;28;20276;-77
2023/03/27 02:24:31;;;;;;;2.47;1.00;;;4.50;99.90;;;;;;5109426;28;20217;-76
2023/03/27 02:27:11;;;;;;;2.10;1.03;;;4.50;99.90;;;;;;5109136;28;20214;-78
2023/03/27 02:29:51;;;;;;;1.57;1.07;;;4.40;99.90;;;;;;5108817;28;20210;-76
2023/03/27 02:32:32;;;;;;;2.67;1.20;;;4.40;99.90;;;;;;5108542;28;20191;-77
2023/03/27 02:35:19;;;;;;;1.73;1.23;;;4.40;99.90;;;;;;5108545;28;20287;-77
2023/03/27 02:37:55;;;;;;;1.63;1.30;;;4.40;99.90;;;;;;5108890;28;20312;-78
2023/03/27 02:40:37;;;;;;;1.73;1.23;;;4.40;99.90;;;;;;5108651;28;20237;-78
2023/03/27 02:43:12;;;;;;;1.37;1.20;;;4.40;99.90;;;;;;5108495;28;20205;-77
2023/03/27 02:45:52;;;;;;;3.60;1.20;;;4.40;99.90;;;;;;5100694;28;20645;-77
2023/03/27 02:48:26;;;;;;;1.83;1.43;;;4.50;99.90;;;;;;5095286;28;20195;-78
2023/03/27 02:50:59;;;;;;;2.37;1.30;;;4.50;99.90;;;;;;5094947;28;20237;-79
2023/03/27 02:53:30;;;;;;;1.53;1.30;;;4.50;99.90;;;;;;5094315;28;20282;-77
2023/03/27 02:56:02;;;;;;;1.57;1.47;;;4.50;99.90;;;;;;5095031;28;20215;-79
2023/03/27 02:58:38;;;;;;;2.07;1.50;;;4.50;99.90;;;;;;5093625;28;20195;-78
2023/03/27 03:01:12;;;;;;;2.30;1.40;;;4.50;99.90;;;;;;5095031;28;20229;-77
2023/03/27 03:03:44;;;;;;;1.50;1.40;;;4.50;99.90;;;;;;5094394;28;20241;-78
2023/03/27 03:06:13;;;;;;;2.80;1.50;;;4.50;99.90;;;;;;5094895;28;20195;-76
2023/03/27 03:08:41;;;;;;;1.77;1.40;;;4.50;99.90;;;;;;5094476;28;20202;-78
2023/03/27 03:11:13;;;;;;;1.77;1.33;;;4.50;99.90;;;;;;5115187;28;20507;-78
2023/03/27 03:13:43;;;;;;;1.70;1.50;;;4.50;99.90;;;;;;5112865;28;20361;-77
2023/03/27 03:16:11;;;;;;;2.00;1.50;;;4.50;99.90;;;;;;5113323;28;20202;-78
2023/03/27 03:18:39;;;;;;;3.43;1.53;;;4.50;99.90;;;;;;5115018;28;20247;-77
2023/03/27 03:21:07;;;;;;;2.43;1.70;;;4.40;99.90;;;;;;5098508;28;20214;-78
2023/03/27 03:23:36;;;;;;;1.80;1.70;;;4.40;99.90;;;;;;5094386;28;20512;-76
2023/03/27 03:26:05;;;;;;;2.17;1.60;;;4.40;99.90;;;;;;5098505;28;20279;-76
2023/03/27 03:28:34;;;;;;;3.80;1.90;;;4.30;99.90;;;;;;5114323;28;20218;-77
2023/03/27 03:31:04;;;;;;;3.53;2.10;;;4.30;99.90;;;;;;5114255;28;20555;-77
2023/03/27 03:33:33;;;;;;;2.93;2.10;;;4.30;99.90;;;;;;5109696;28;20234;-76
2023/03/27 03:36:01;;;;;;;2.50;2.30;;;4.20;99.90;;;;;;5094255;28;20239;-76
2023/03/27 03:38:30;;;;;;;2.43;2.23;;;4.30;99.90;;;;;;5093835;28;20651;-78
2023/03/27 03:41:05;;;;;;;2.83;2.40;;;4.30;99.90;;;;;;5093924;28;20616;-77
2023/03/27 03:43:34;;;;;;;3.70;2.57;;;4.30;99.90;;;;;;5093549;28;20294;-76
2023/03/27 03:46:04;;;;;;;2.60;2.40;;;4.30;99.90;;;;;;5093649;28;20643;-77
2023/03/27 03:48:32;;;;;;;2.50;2.30;;;4.20;99.90;;;;;;5093849;28;20260;-78
2023/03/27 03:51:01;;;;;;;7.47;3.17;;;4.20;99.90;;;;;;5092997;28;20613;-77
2023/03/27 03:53:29;;;;;;;3.20;2.90;;;4.30;99.90;;;;;;5093417;28;20210;-78
2023/03/27 03:55:57;;;;;;;4.67;3.47;;;4.20;99.90;;;;;;5093367;28;20222;-78
2023/03/27 03:58:25;;;;;;;3.30;3.00;;;4.20;99.90;;;;;;5092317;28;20219;-78
2023/03/27 04:01:03;;;;;;;3.27;3.03;;;4.20;99.90;;;;;;5093647;28;20244;-76
2023/03/27 04:03:32;;;;;;;3.43;3.03;;;4.20;99.90;;;;;;5092944;28;20242;-76
2023/03/27 04:06:03;;;;;;;3.43;3.13;;;4.20;99.90;;;;;;5093417;28;20214;-78
2023/03/27 04:08:32;;;;;;;3.60;3.30;;;4.20;99.90;;;;;;5103108;28;20289;-78
2023/03/27 04:11:01;;;;;;;3.83;3.43;;;4.30;99.90;;;;;;5113853;28;20694;-76
2023/03/27 04:13:29;;;;;;;3.80;3.40;;;4.20;99.90;;;;;;5112950;28;20743;-77
2023/03/27 04:16:00;;;;;;;3.57;3.23;;;4.20;99.90;;;;;;5112040;28;20221;-77
2023/03/27 04:18:31;;;;;;;3.77;3.33;;;4.20;99.90;;;;;;5106171;28;20195;-77
2023/03/27 04:21:00;;;;;;;5.47;2.90;;;4.20;99.90;;;;;;5112672;28;20205;-78
2023/03/27 04:23:30;;;;;;;4.03;3.30;;;4.20;99.90;;;;;;5112885;28;20194;-78
2023/03/27 04:25:59;;;;;;;3.03;2.60;;;4.20;99.90;;;;;;5108256;28;20221;-77
2023/03/27 04:28:29;;;;;;;5.57;3.30;;;4.20;99.90;;;;;;5112962;28;20595;-78
2023/03/27 04:30:57;;;;;;;3.33;3.00;;;4.20;99.90;;;;;;5109909;28;20301;-76
2023/03/27 04:33:26;;;;;;;3.47;3.00;;;4.20;99.90;;;;;;5112770;28;20320;-78
2023/03/27 04:36:00;;;;;;;3.60;3.00;;;4.20;99.90;;;;;;5112363;28;20225;-76
2023/03/27 04:38:35;;;;;;;3.80;3.30;;;4.20;99.90;;;;;;5110985;28;20445;-78
2023/03/27 04:41:04;;;;;;;3.87;3.10;;;4.20;99.90;;;;;;5111757;28;20206;-78
2023/03/27 04:43:35;;;;;;;3.33;3.03;;;4.10;99.90;;;;;;5114519;28;20327;-78
2023/03/27 04:46:04;;;;;;;3.40;3.10;;;4.20;99.90;;;;;;5115040;28;20201;-78
2023/03/27 04:48:32;;;;;;;5.13;3.10;;;4.20;99.90;;;;;;5116492;28;20278;-76
2023/03/27 04:51:02;;;;;;;2.50;2.30;;;4.20;99.90;;;;;;5095300;28;20222;-77
2023/03/27 04:53:31;;;;;;;2.73;2.53;;;4.20;99.90;;;;;;5092476;28;20242;-77
2023/03/27 04:55:59;;;;;;;2.50;2.00;;;4.20;99.90;;;;;;5093259;28;20294;-79
2023/03/27 04:58:28;;;;;;;1.40;1.30;;;4.20;99.90;;;;;;5094755;28;20213;-78
2023/03/27 05:00:56;;;;;;;0.97;0.97;;;4.20;99.90;;;;;;5108554;28;20198;-77
2023/03/27 05:03:27;;;;;;;0.80;0.80;;;4.10;99.90;;;;;;5111407;28;20214;-78
2023/03/27 05:05:55;;;;;;;0.93;0.80;;;4.00;99.90;;;;;;5111659;28;20186;-79
2023/03/27 05:08:25;;;;;;;0.77;0.60;;;3.90;99.90;;;;;;5112305;28;20198;-77
2023/03/27 05:10:53;;;;;;;0.70;0.70;;;3.90;99.90;;;;;;5113634;28;20217;-76
2023/03/27 05:13:22;;;;;;;1.53;0.80;;;3.80;99.90;;;;;;5108895;28;20210;-76
2023/03/27 05:15:50;;;;;;;0.70;0.70;;;3.80;99.90;;;;;;5114796;28;20317;-78
2023/03/27 05:18:18;;;;;;;0.50;0.50;;;3.70;99.90;;;;;;5114511;28;20296;-77
2023/03/27 05:20:48;;;;;;;0.70;0.70;;;3.60;99.90;;;;;;5112836;28;20208;-78
2023/03/27 05:23:17;;;;;;;1.00;0.70;;;3.60;99.90;;;;;;5105499;28;20210;-78
2023/03/27 05:25:46;;;;;;;0.90;0.90;;;3.60;99.90;;;;;;5112356;28;20228;-77
2023/03/27 05:28:28;;;;;;;3.10;1.07;;;3.50;99.90;;;;;;5112522;28;20228;-77
2023/03/27 05:30:56;;;;;;;2.13;1.20;;;3.50;99.90;;;;;;5096559;28;20233;-77
2023/03/27 05:33:25;;;;;;;2.93;1.07;;;3.40;99.90;;;;;;5102309;28;20264;-77
2023/03/27 05:35:53;;;;;;;1.30;1.10;;;3.40;99.90;;;;;;5112262;28;20363;-78
2023/03/27 05:38:23;;;;;;;1.10;1.00;;;3.30;99.90;;;;;;5103217;28;20211;-78
2023/03/27 05:40:52;;;;;;;1.20;1.20;;;3.30;99.90;;;;;;5092215;28;20207;-77
2023/03/27 05:43:21;;;;;;;2.40;1.50;;;3.20;99.90;;;;;;5091970;28;20294;-78
2023/03/27 05:45:50;;;;;;;2.37;1.70;;;3.20;99.90;;;;;;5091859;28;20260;-78
2023/03/27 05:48:18;;;;;;;2.03;1.80;;;3.20;99.90;;;;;;5112429;28;20571;-78
2023/03/27 05:50:46;;;;;;;2.70;1.80;;;3.10;99.90;;;;;;5112493;28;20216;-78
2023/03/27 05:53:14;;;;;;;2.87;1.80;;;3.10;99.90;;;;;;5111782;28;20198;-79
2023/03/27 05:55:43;;;;;;;2.37;1.93;;;3.10;99.90;;;;;;5110103;28;20228;-77
2023/03/27 05:58:13;;;;;;;3.00;1.80;;;3.10;99.90;;;;;;5091589;28;20206;-78
2023/03/27 06:00:43;;;;;;;2.23;2.03;;;3.10;99.90;;;;;;5091431;28;20296;-79
2023/03/27 06:03:12;;;;;;;3.23;2.00;;;3.10;99.90;;;;;;5091380;28;20250;-77
2023/03/27 06:05:42;;;;;;;2.90;2.03;;;3.00;99.90;;;;;;5100836;28;20207;-77
2023/03/27 06:08:11;;;;;;;3.27;2.13;;;3.10;99.90;;;;;;5105122;28;20234;-77
2023/03/27 06:10:42;;;;;;;2.50;1.90;;;3.10;99.90;;;;;;5092688;28;20238;-79
2023/03/27 06:13:13;;;;;;;3.67;2.00;;;3.10;99.90;;;;;;5092751;28;20680;-78
2023/03/27 06:15:42;;;;;;;2.00;1.80;;;3.10;99.90;;;;;;5092412;28;20238;-77
2023/03/27 06:18:11;;;;;;;2.27;1.60;;;3.20;99.90;;;;;;5093062;28;20207;-76
2023/03/27 06:20:39;;;;;;;1.70;1.60;;;3.10;99.90;;;;;;5093643;28;20203;-78
2023/03/27 06:23:08;;;;;;;2.17;1.63;;;3.10;99.90;;;;;;5096512;28;20217;-77
2023/03/27 06:25:38;;;;;;;2.70;1.80;;;3.10;99.90;;;;;;5096731;28;20227;-77
2023/03/27 06:28:08;;;;;;;2.23;1.53;;;3.10;99.90;;;;;;5096085;28;20206;-78
2023/03/27 06:30:38;;;;;;;2.70;1.53;;;3.10;99.90;;;;;;5095869;28;20199;-77
2023/03/27 06:33:07;;;;;;;3.30;1.80;;;3.10;99.90;;;;;;5094917;28;20632;-78
2023/03/27 06:35:36;;;;;;;1.77;1.30;;;3.10;99.90;;;;;;5095321;28;20633;-77
2023/03/27 06:38:05;;;;;;;2.20;1.60;;;3.20;99.90;;;;;;5095241;28;20234;-78
2023/03/27 06:40:35;;;;;;;1.80;1.43;;;3.20;99.90;;;;;;5094572;28;20303;-76
2023/03/27 06:43:06;;;;;;;2.83;1.43;;;3.30;99.90;;;;;;5095149;28;20298;-75
2023/03/27 06:45:36;;;;;;;1.63;1.30;;;3.30;99.90;;;;;;5095060;28;20646;-78
2023/03/27 06:48:07;;;;;;;2.10;1.40;;;3.30;99.90;;;;;;5095179;28;20237;-76
2023/03/27 06:50:47;;;;;;;1.40;1.30;;;3.30;99.90;;;;;;5095085;28;20206;-76
2023/03/27 06:53:16;;;;;;;2.30;1.60;;;3.30;99.90;;;;;;5094513;28;20209;-76
2023/03/27 06:55:49;;;;;;;2.10;1.40;;;3.30;99.90;;;;;;5095363;28;20221;-78
2023/03/27 06:58:18;;;;;;;2.07;1.40;;;3.30;99.90;;;;;;5094680;28;20237;-78
2023/03/27 07:00:48;;;;;;;1.63;1.50;;;3.40;99.90;;;;;;5092632;28;20210;-78
2023/03/27 07:03:20;;;;;;;1.93;1.70;;;3.50;99.90;;;;;;5104626;28;20666;-83
2023/03/27 07:05:50;;;;;;;2.63;1.90;;;3.60;99.90;;;;;;5104716;28;20297;-78
2023/03/27 07:08:20;;;;;;;2.27;1.63;;;3.60;99.90;;;;;;5101838;28;20213;-78
2023/03/27 07:10:52;;;;;;;1.67;1.57;;;3.50;99.90;;;;;;5107934;28;20229;-78
2023/03/27 07:13:37;;;;;;;4.27;2.13;;;3.50;99.90;;;;;;5105477;28;20210;-77
2023/03/27 07:16:06;;;;;;;1.87;1.63;;;3.40;99.90;;;;;;5104732;27;20290;-79
2023/03/27 07:18:36;;;;;;;2.10;1.90;;;3.30;99.90;;;;;;5114425;28;20560;-77
2023/03/27 07:21:06;;;;;;;2.40;2.20;;;3.20;99.90;;;;;;5104579;28;20664;-80
2023/03/27 07:23:34;;;;;;;2.30;2.10;;;3.30;99.90;;;;;;5110600;28;20202;-79
2023/03/27 07:26:02;;;;;;;3.20;2.27;;;3.30;99.90;;;;;;5110820;28;20610;-78
2023/03/27 07:28:31;;;;;;;2.93;2.10;;;3.30;99.90;;;;;;5115426;28;20255;-79
2023/03/27 07:30:59;;;;;;;6.97;3.73;;;3.30;99.90;;;;;;5097009;28;20211;-79
2023/03/27 07:33:27;;;;;;;5.03;3.60;;;3.40;99.90;;;;;;5093385;28;20243;-79
2023/03/27 07:35:57;;;;;;;6.73;5.67;;;3.50;99.90;;;;;;5093932;28;20233;-77
2023/03/27 07:38:25;;;;;;;8.80;7.27;;;3.40;99.90;;;;;;5104107;28;20317;-77
2023/03/27 07:40:54;;;;;;;4.23;3.40;;;3.30;99.90;;;;;;5114763;28;20297;-77
2023/03/27 07:43:22;;;;;;;2.40;2.10;;;3.20;99.90;;;;;;5096028;28;20207;-78
2023/03/27 07:45:50;;;;;;;1.80;1.70;;;2.90;99.90;;;;;;5111959;28;20614;-80
2023/03/27 07:48:18;;;;;;;1.63;1.50;;;2.70;99.90;;;;;;5106467;28;20238;-80
2023/03/27 07:50:46;;;;;;;2.40;1.23;;;2.50;99.90;;;;;;5110311;28;20233;-78
2023/03/27 07:53:18;;;;;;;2.40;1.80;;;2.20;99.90;;;;;;5115040;28;20202;-78
2023/03/27 07:56:02;;;;;;;2.30;2.10;;;2.00;99.90;;;;;;5098444;28;20203;-80
2023/03/27 07:58:30;;;;;;;3.50;2.43;;;1.90;99.90;;;;;;5095917;28;20294;-80
2023/03/27 08:01:00;;;;;;;5.43;2.53;;;1.90;99.90;;;;;;5108231;28;20217;-79
2023/03/27 08:03:30;;;;;;;3.57;2.80;;;2.10;99.90;;;;;;5121536;28;20202;-78
2023/03/27 08:06:00;;;;;;;5.27;2.83;;;2.30;99.90;;;;;;5122421;28;20217;-78
2023/03/27 08:08:30;;;;;;;4.53;2.90;;;2.60;99.90;;;;;;5115501;28;20201;-82
2023/03/27 08:10:59;;;;;;;5.07;2.80;;;2.70;99.90;;;;;;5095429;28;20222;-81
2023/03/27 08:13:27;;;;;;;4.20;2.50;;;3.00;99.90;;;;;;5111343;28;20585;-77
2023/03/27 08:16:03;;;;;;;4.93;2.60;;;3.10;99.90;;;;;;5107855;28;20494;-78
2023/03/27 08:18:31;;;;;;;4.97;2.73;;;3.20;99.90;;;;;;5106466;28;20214;-79
2023/03/27 08:21:01;;;;;;;5.67;3.10;;;3.30;99.90;;;;;;5112999;28;20546;-76
2023/03/27 08:23:32;;;;;;;4.97;2.70;;;3.30;99.90;;;;;;5113289;28;20195;-78
2023/03/27 08:26:02;;;;;;;3.53;2.47;;;3.40;99.90;;;;;;5113860;28;20607;-79
2023/03/27 08:28:32;;;;;;;5.00;2.60;;;3.40;99.90;;;;;;5098850;28;20226;-77
2023/03/27 08:31:02;;;;;;;5.80;2.80;;;3.50;99.90;;;;;;5093172;28;20206;-78
2023/03/27 08:33:30;;;;;;;7.80;2.83;;;3.50;99.90;;;;;;5111236;28;20218;-81
2023/03/27 08:35:59;;;;;;;7.97;3.37;;;3.50;99.90;;;;;;5110562;28;20636;-78
2023/03/27 08:38:31;;;;;;;6.00;3.80;;;3.50;99.90;;;;;;5109820;28;20229;-77
2023/03/27 08:41:02;;;;;;;6.90;3.43;;;3.40;99.90;;;;;;5113845;28;20217;-76
2023/03/27 08:43:36;;;;;;;4.27;2.70;;;3.40;99.90;;;;;;5104890;28;20206;-78
2023/03/27 08:46:08;;;;;;;4.93;2.60;;;3.40;99.90;;;;;;5107881;28;20281;-78
2023/03/27 08:48:44;;;;;;;6.40;2.90;;;3.50;99.90;;;;;;5105828;28;20322;-81
2023/03/27 08:51:17;;;;;;;7.40;2.90;;;3.50;99.90;;;;;;5103256;28;20647;-78
2023/03/27 08:53:51;;;;;;;5.47;2.57;;;3.80;99.90;;;;;;5111401;28;20682;-78
2023/03/27 08:56:21;;;;;;;5.53;2.90;;;3.90;99.90;;;;;;5113099;28;20657;-76
2023/03/27 08:58:49;;;;;;;4.43;2.90;;;4.10;99.90;;;;;;5098675;28;20228;-79
2023/03/27 09:01:25;;;;;;;7.37;3.67;;;4.20;99.90;;;;;;5098098;28;20203;-79
2023/03/27 09:03:59;;;;;;;7.70;3.77;;;4.40;99.90;;;;;;5094881;28;20209;-78
2023/03/27 09:06:36;;;;;;;8.07;3.30;;;4.40;99.90;;;;;;5108645;28;20213;-77
2023/03/27 09:09:11;;;;;;;9.67;2.77;;;4.20;99.90;;;;;;5100543;28;20679;-77
2023/03/27 09:11:57;;;;;;;6.10;2.83;;;4.30;99.90;;;;;;5093014;28;20195;-79
2023/03/27 09:14:32;;;;;;;6.07;2.63;;;4.20;99.90;;;;;;5100962;28;20198;-79
2023/03/27 09:17:06;;;;;;;5.70;2.80;;;4.20;99.90;;;;;;5098901;28;20305;-77
2023/03/27 09:19:43;;;;;;;5.20;2.57;;;4.10;99.90;;;;;;5094966;28;20652;-78
2023/03/27 09:22:15;;;;;;;8.00;2.70;;;4.10;99.90;;;;;;5092235;28;20195;-78
2023/03/27 09:24:46;;;;;;;5.97;2.67;;;4.00;99.90;;;;;;5092424;28;20234;-78
2023/03/27 09:27:20;;;;;;;9.07;3.47;;;3.90;99.90;;;;;;5092423;28;20277;-77
2023/03/27 09:29:57;;;;;;;6.43;3.23;;;3.90;99.90;;;;;;5100938;28;20235;-78
2023/03/27 09:32:33;;;;;;;6.60;4.00;;;3.80;99.90;;;;;;5098410;28;20214;-78
2023/03/27 09:35:03;;;;;;;7.37;3.50;;;3.80;99.90;;;;;;5094389;28;20210;-77
2023/03/27 09:37:31;;;;;;;6.50;2.80;;;3.70;99.90;;;;;;5104121;28;20302;-76
2023/03/27 09:40:11;;;;;;;6.70;3.27;;;3.60;99.90;;;;;;5099008;28;20237;-78
2023/03/27 09:42:42;;;;;;;6.50;3.10;;;3.60;99.90;;;;;;5092124;28;20198;-77
2023/03/27 09:45:13;;;;;;;8.23;3.47;;;3.60;99.90;;;;;;5092815;28;20678;-78
2023/03/27 09:47:45;;;;;;;9.23;3.10;;;3.70;99.90;;;;;;5108826;28;20222;-77
2023/03/27 09:50:24;;;;;;;5.60;3.30;;;3.70;99.90;;;;;;5104030;28;20238;-77
2023/03/27 09:53:07;;;;;;;7.47;3.87;;;3.80;99.90;;;;;;5108725;28;20283;-78
2023/03/27 09:55:44;;;;;;;8.50;4.03;;;3.80;99.90;;;;;;5097895;28;20201;-79
2023/03/27 09:58:19;;;;;;;7.07;3.70;;;3.80;99.90;;;;;;5103545;28;20237;-77
2023/03/27 10:00:47;;;;;;;6.93;3.73;;;3.90;99.90;;;;;;5096120;28;20228;-78
2023/03/27 10:03:18;;;;;;;7.97;3.70;;;3.90;99.90;;;;;;5107375;28;20266;-77
2023/03/27 10:05:46;;;;;;;7.03;3.87;;;4.00;99.90;;;;;;5112177;28;20202;-78
2023/03/27 10:08:31;;;;;;;8.53;3.90;;;4.10;99.90;;;;;;5116304;28;20210;-77
2023/03/27 10:11:00;;;;;;;8.60;3.77;;;4.20;99.90;;;;;;5103971;28;20214;-79
2023/03/27 10:13:30;;;;;;;8.40;4.07;;;4.40;99.90;;;;;;5097585;28;20234;-78
2023/03/27 10:15:59;;;;;;;5.53;3.83;;;4.50;99.90;;;;;;5102142;28;20207;-77
2023/03/27 10:18:30;;;;;;;8.33;4.03;;;4.50;99.90;;;;;;5111658;28;20712;-78
2023/03/27 10:21:01;;;;;;;8.57;4.13;;;4.40;99.90;;;;;;5107332;28;20233;-78
2023/03/27 10:23:41;;;;;;;9.63;4.50;;;4.30;99.90;;;;;;5095479;28;20318;-79
2023/03/27 10:26:13;;;;;;;10.67;4.13;;;4.10;99.90;;;;;;5097107;28;20209;-75
2023/03/27 10:28:47;;;;;;;12.00;4.20;;;4.10;99.90;;;;;;5113867;28;20199;-78
2023/03/27 10:31:29;;;;;;;6.53;3.80;;;3.90;99.90;;;;;;5108434;28;20636;-79
2023/03/27 10:34:01;;;;;;;10.10;4.00;;;3.80;99.90;;;;;;5115374;28;20228;-77
2023/03/27 10:36:39;;;;;;;7.57;3.80;;;3.40;99.90;;;;;;5103004;28;20238;-78
2023/03/27 10:39:11;;;;;;;8.83;4.53;;;3.20;99.90;;;;;;5095253;28;20214;-77
2023/03/27 10:41:40;;;;;;;10.53;4.40;;;3.10;99.90;;;;;;5095177;28;20218;-76
2023/03/27 10:44:18;;;;;;;11.50;4.90;;;3.10;99.90;;;;;;5095276;28;20809;-78
2023/03/27 10:46:46;;;;;;;10.83;3.93;;;3.30;99.90;;;;;;5106330;28;20229;-77
2023/03/27 10:49:27;;;;;;;9.10;4.13;;;3.40;99.90;;;;;;5115112;28;20222;-78
2023/03/27 10:52:08;;;;;;;9.17;4.10;;;3.40;99.90;;;;;;5111550;28;20203;-79
2023/03/27 10:54:45;;;;;;;8.63;3.90;;;3.30;99.90;;;;;;5114912;28;20561;-79
2023/03/27 10:57:18;;;;;;;9.70;3.70;;;3.20;99.90;;;;;;5115925;28;20225;-77
2023/03/27 10:59:51;;;;;;;8.90;3.60;;;3.20;99.90;;;;;;5110687;28;20207;-78
2023/03/27 11:02:23;;;;;;;7.30;3.73;;;3.20;99.90;;;;;;5103380;28;20208;-77
2023/03/27 11:04:57;;;;;;;9.40;4.00;;;3.20;99.90;;;;;;5108222;28;20224;-79
2023/03/27 11:07:32;;;;;;;8.13;3.63;;;3.20;99.90;;;;;;5111497;28;20312;-77
2023/03/27 11:10:05;;;;;;;8.93;3.70;;;3.20;99.90;;;;;;5110007;28;20656;-76
2023/03/27 11:12:37;;;;;;;8.17;3.40;;;3.40;99.90;;;;;;5114401;28;20203;-78
2023/03/27 11:15:14;;;;;;;8.33;4.00;;;3.50;99.90;;;;;;5109052;28;20199;-78
2023/03/27 11:17:49;;;;;;;7.33;3.40;;;3.70;99.90;;;;;;5097044;28;20244;-79
2023/03/27 11:20:22;;;;;;;8.30;3.20;;;4.10;99.90;;;;;;5110275;28;20823;-77
2023/03/27 11:22:59;;;;;;;8.80;3.70;;;4.50;99.90;;;;;;5113747;28;20186;-79
2023/03/27 11:25:37;;;;;;;7.73;3.40;;;4.80;99.90;;;;;;5112713;28;20217;-78
2023/03/27 11:28:18;;;;;;;6.23;2.80;;;5.30;99.90;;;;;;5114596;28;20260;-80
2023/03/27 11:30:54;;;;;;;7.93;2.57;;;6.00;99.90;;;;;;5113737;28;20194;-77
2023/03/27 11:33:44;;;;;;;3.23;2.20;;;6.80;99.90;;;;;;5112494;28;20239;-79
2023/03/27 11:36:39;;;;;;;3.87;2.30;;;7.40;99.90;;;;;;5094062;28;20214;-80
2023/03/27 11:39:15;;;;;;;4.63;2.30;;;7.50;99.90;;;;;;5098698;28;20413;-79
2023/03/27 11:41:50;;;;;;;6.83;2.57;;;6.70;99.90;;;;;;5106829;28;20225;-79
2023/03/27 11:44:18;;;;;;;7.17;3.50;;;6.10;99.90;;;;;;5109596;28;20284;-79
2023/03/27 11:47:03;;;;;;;6.23;2.43;;;5.40;99.90;;;;;;5105121;28;20236;-78
2023/03/27 11:49:50;;;;;;;4.73;1.90;;;4.90;99.90;;;;;;5107175;28;20225;-79
2023/03/27 11:52:28;;;;;;;6.30;2.70;;;4.80;99.90;;;;;;5103494;28;20236;-80
2023/03/27 11:55:10;;;;;;;3.80;2.00;;;4.90;99.90;;;;;;5095442;28;20203;-79
2023/03/27 11:57:50;;;;;;;4.00;2.23;;;5.10;99.90;;;;;;5099403;28;20651;-79
2023/03/27 12:00:29;;;;;;;5.67;2.33;;;5.50;99.90;;;;;;5099985;28;20608;-78
2023/03/27 12:03:36;;;;;;;4.73;2.50;;;5.50;99.90;;;;;;5098015;28;20205;-78
2023/03/27 12:06:14;;;;;;;5.93;2.23;;;5.80;99.90;;;;;;5105785;28;20205;-79
2023/03/27 12:09:00;;;;;;;5.70;2.10;;;5.40;99.90;;;;;;5093720;28;20674;-79
2023/03/27 12:11:30;;;;;;;3.77;2.10;;;5.40;99.90;;;;;;5093361;28;20203;-79
2023/03/27 12:14:41;;;;;;;4.53;1.90;;;5.30;99.90;;;;;;5092669;28;20640;-80
2023/03/27 12:17:39;;;;;;;4.13;2.03;;;5.40;99.90;;;;;;5068952;28;20242;-78
2023/03/27 12:20:29;;;;;;;4.67;2.37;;;5.70;99.90;;;;;;5092632;28;20284;-80
2023/03/27 12:23:09;;;;;;;3.67;2.40;;;5.80;99.90;;;;;;5104604;28;20210;-78
2023/03/27 12:26:00;;;;;;;5.00;2.10;;;5.50;99.90;;;;;;5109207;28;20198;-78
2023/03/27 12:28:47;;;;;;;5.60;1.80;;;5.30;99.90;;;;;;5096683;28;20203;-79
2023/03/27 12:31:27;;;;;;;5.13;1.90;;;5.20;99.90;;;;;;5121489;28;20206;-76
2023/03/27 12:34:01;;;;;;;3.63;1.60;;;5.10;99.90;;;;;;5121497;28;20244;-79
2023/03/27 12:36:34;;;;;;;3.80;1.83;;;5.20;99.90;;;;;;5121210;28;20217;-78
2023/03/27 12:39:15;;;;;;;4.10;2.20;;;5.10;99.90;;;;;;5106578;28;20570;-80
2023/03/27 12:41:45;;;;;;;6.83;2.50;;;5.10;99.90;;;;;;5093368;28;20293;-77
2023/03/27 12:44:14;;;;;;;4.80;1.90;;;5.20;99.90;;;;;;5094606;28;20218;-78
2023/03/27 12:46:43;;;;;;;3.70;1.60;;;5.30;99.90;;;;;;5092243;28;20207;-78
2023/03/27 12:49:42;;;;;;;2.50;1.30;;;5.50;99.90;;;;;;5097903;28;20222;-78
2023/03/27 12:52:17;;;;;;;2.73;1.40;;;5.40;99.90;;;;;;5029553;28;20231;-78
2023/03/27 12:55:08;;;;;;;3.40;1.47;;;5.30;99.90;;;;;;5099094;28;20210;-77
2023/03/27 12:57:42;;;;;;;2.47;1.30;;;5.20;99.90;;;;;;5106991;28;20206;-80
2023/03/27 13:00:20;;;;;;;4.63;1.70;;;5.10;99.90;;;;;;5112081;28;20237;-77
2023/03/27 13:03:12;;;;;;;3.53;1.70;;;5.10;99.90;;;;;;5112540;28;20205;-77
2023/03/27 13:06:04;;;;;;;2.80;1.33;;;5.10;99.90;;;;;;5103980;28;20213;-79
2023/03/27 13:08:58;;;;;;;5.40;1.53;;;5.10;99.90;;;;;;5091466;28;20191;-77
2023/03/27 13:11:41;;;;;;;4.60;1.50;;;5.10;99.90;;;;;;5092246;28;20261;-78
2023/03/27 13:14:23;;;;;;;4.00;1.60;;;5.00;99.90;;;;;;5091111;28;20207;-75
2023/03/27 13:17:00;;;;;;;3.03;1.20;;;5.00;99.90;;;;;;5089560;28;20273;-77
2023/03/27 13:19:38;;;;;;;4.23;1.50;;;5.10;99.90;;;;;;5090274;28;20554;-77
2023/03/27 13:22:20;;;;;;;3.97;1.50;;;5.10;99.90;;;;;;5090065;28;20201;-78
2023/03/27 13:25:11;;;;;;;2.63;1.10;;;5.20;99.90;;;;;;5090592;28;20294;-77
2023/03/27 13:27:51;;;;;;;5.47;1.70;;;5.30;99.90;;;;;;5090501;28;20187;-78
2023/03/27 13:30:40;;;;;;;3.23;1.40;;;5.50;99.90;;;;;;5073879;28;20289;-80
2023/03/27 13:33:10;;;;;;;2.93;1.37;;;5.40;99.90;;;;;;5092043;28;20207;-77
2023/03/27 13:35:40;;;;;;;4.30;1.43;;;5.40;99.90;;;;;;5092101;28;20219;-78